Chenango Lake, New York
Current Conditions -  °F | °C
As of 5:53 AM on Wednesday 22 Oct 2014 (Local Time) from KBGM Reporting Station
Light Rain Light Rain  
Wind Chill: 42°   Ceiling: 700
Heat Index: 47°   Visibility: 10mi
Dew Point: 45°   Wind: 10mph
Humidity: 93%   Direction: 20°NNE
Pressure: 30"   Gusts: NA
Location:  42.5586°N, 75.5571°W
Report Text: KBGM 220953Z AUTO 02009KT 10SM -RA OVC007 08/07 A3000 RMK AO2 RAB02 CIG 005V011 SLP164 P0001 T00830072
Loading
Personal Weather Stations






























Interactive Weather Map
Tropical Storm Tracking
New forecast layout! Learn more

10-Day Weather Forecast

Advertisements
Track Severe Weather on mobile